sensor_id;sensor_type;location;lat;lon;timestamp;temperature;humidity
4107;DHT22;21906;50.812;7.132;2023-04-25T00:00:00;10.30;66.20
4107;DHT22;21906;50.812;7.132;2023-04-25T00:02:25;10.40;66.40
4107;DHT22;21906;50.812;7.132;2023-04-25T00:04:51;10.30;66.50
4107;DHT22;21906;50.812;7.132;2023-04-25T00:07:17;10.30;67.10
4107;DHT22;21906;50.812;7.132;2023-04-25T00:09:43;10.30;67.10
4107;DHT22;21906;50.812;7.132;2023-04-25T00:12:08;10.30;67.20
4107;DHT22;21906;50.812;7.132;2023-04-25T00:14:34;10.30;67.30
4107;DHT22;21906;50.812;7.132;2023-04-25T00:17:01;10.20;67.30
4107;DHT22;21906;50.812;7.132;2023-04-25T00:19:26;10.10;67.40
4107;DHT22;21906;50.812;7.132;2023-04-25T00:21:54;10.10;67.50
4107;DHT22;21906;50.812;7.132;2023-04-25T00:24:20;10.10;67.70
4107;DHT22;21906;50.812;7.132;2023-04-25T00:26:46;10.00;67.50
4107;DHT22;21906;50.812;7.132;2023-04-25T00:29:12;10.10;67.30
4107;DHT22;21906;50.812;7.132;2023-04-25T00:31:37;10.10;67.40
4107;DHT22;21906;50.812;7.132;2023-04-25T00:34:03;10.00;67.40
4107;DHT22;21906;50.812;7.132;2023-04-25T00:36:28;9.90;67.50
4107;DHT22;21906;50.812;7.132;2023-04-25T00:38:54;9.90;67.70
4107;DHT22;21906;50.812;7.132;2023-04-25T00:41:20;9.90;67.80
4107;DHT22;21906;50.812;7.132;2023-04-25T00:43:46;9.80;67.60
4107;DHT22;21906;50.812;7.132;2023-04-25T00:46:13;9.80;67.80
4107;DHT22;21906;50.812;7.132;2023-04-25T00:48:38;9.80;67.70
4107;DHT22;21906;50.812;7.132;2023-04-25T00:51:04;9.80;67.60
4107;DHT22;21906;50.812;7.132;2023-04-25T00:53:30;9.80;67.70
4107;DHT22;21906;50.812;7.132;2023-04-25T00:55:57;9.80;67.50
4107;DHT22;21906;50.812;7.132;2023-04-25T00:58:24;9.80;67.60
4107;DHT22;21906;50.812;7.132;2023-04-25T01:00:51;9.60;67.60
4107;DHT22;21906;50.812;7.132;2023-04-25T01:03:18;9.50;67.80
4107;DHT22;21906;50.812;7.132;2023-04-25T01:05:46;9.50;67.60
4107;DHT22;21906;50.812;7.132;2023-04-25T01:08:12;9.50;67.70
4107;DHT22;21906;50.812;7.132;2023-04-25T01:10:38;9.40;67.60
4107;DHT22;21906;50.812;7.132;2023-04-25T01:13:04;9.40;67.70
4107;DHT22;21906;50.812;7.132;2023-04-25T01:15:31;9.40;67.70
4107;DHT22;21906;50.812;7.132;2023-04-25T01:17:58;9.40;67.70
4107;DHT22;21906;50.812;7.132;2023-04-25T01:20:24;9.30;68.00
4107;DHT22;21906;50.812;7.132;2023-04-25T01:22:53;9.30;68.40
4107;DHT22;21906;50.812;7.132;2023-04-25T01:25:20;9.20;68.60
4107;DHT22;21906;50.812;7.132;2023-04-25T01:27:47;9.10;68.80
4107;DHT22;21906;50.812;7.132;2023-04-25T01:30:13;9.10;68.80
4107;DHT22;21906;50.812;7.132;2023-04-25T01:32:40;9.20;68.80
4107;DHT22;21906;50.812;7.132;2023-04-25T01:35:08;9.10;68.80
4107;DHT22;21906;50.812;7.132;2023-04-25T01:37:38;9.10;69.00
4107;DHT22;21906;50.812;7.132;2023-04-25T01:40:04;9.10;69.10
4107;DHT22;21906;50.812;7.132;2023-04-25T01:42:31;9.10;69.10
4107;DHT22;21906;50.812;7.132;2023-04-25T01:44:57;9.00;69.00
4107;DHT22;21906;50.812;7.132;2023-04-25T01:47:23;8.90;69.10
4107;DHT22;21906;50.812;7.132;2023-04-25T01:49:49;8.90;69.30
4107;DHT22;21906;50.812;7.132;2023-04-25T01:52:14;8.90;69.40
4107;DHT22;21906;50.812;7.132;2023-04-25T01:54:40;8.70;69.60
4107;DHT22;21906;50.812;7.132;2023-04-25T01:57:09;8.70;69.70
4107;DHT22;21906;50.812;7.132;2023-04-25T01:59:35;8.60;70.10
4107;DHT22;21906;50.812;7.132;2023-04-25T02:02:01;8.60;70.30
4107;DHT22;21906;50.812;7.132;2023-04-25T02:04:29;8.70;70.10
4107;DHT22;21906;50.812;7.132;2023-04-25T02:06:55;8.70;70.00
4107;DHT22;21906;50.812;7.132;2023-04-25T02:09:21;8.80;69.90
4107;DHT22;21906;50.812;7.132;2023-04-25T02:11:46;8.80;69.80
4107;DHT22;21906;50.812;7.132;2023-04-25T02:14:12;8.70;70.20
4107;DHT22;21906;50.812;7.132;2023-04-25T02:16:38;8.60;70.70
4107;DHT22;21906;50.812;7.132;2023-04-25T02:19:04;8.70;70.50
4107;DHT22;21906;50.812;7.132;2023-04-25T02:21:30;8.70;70.40
4107;DHT22;21906;50.812;7.132;2023-04-25T02:23:56;8.70;70.90
4107;DHT22;21906;50.812;7.132;2023-04-25T02:26:21;8.80;70.80
4107;DHT22;21906;50.812;7.132;2023-04-25T02:28:49;8.80;70.80
4107;DHT22;21906;50.812;7.132;2023-04-25T02:31:15;8.80;70.50
4107;DHT22;21906;50.812;7.132;2023-04-25T02:33:42;8.80;70.70
4107;DHT22;21906;50.812;7.132;2023-04-25T02:36:08;8.80;70.50
4107;DHT22;21906;50.812;7.132;2023-04-25T02:38:33;8.90;70.40
4107;DHT22;21906;50.812;7.132;2023-04-25T02:40:59;8.90;70.10
4107;DHT22;21906;50.812;7.132;2023-04-25T02:43:25;8.90;69.90
4107;DHT22;21906;50.812;7.132;2023-04-25T02:45:50;8.90;70.20
4107;DHT22;21906;50.812;7.132;2023-04-25T02:48:16;8.90;69.80
4107;DHT22;21906;50.812;7.132;2023-04-25T02:50:42;8.90;70.00
4107;DHT22;21906;50.812;7.132;2023-04-25T02:53:08;8.90;70.10
4107;DHT22;21906;50.812;7.132;2023-04-25T02:55:33;8.90;70.30
4107;DHT22;21906;50.812;7.132;2023-04-25T02:57:59;8.90;70.30
4107;DHT22;21906;50.812;7.132;2023-04-25T03:00:25;8.90;70.10
4107;DHT22;21906;50.812;7.132;2023-04-25T03:02:50;9.00;69.90
4107;DHT22;21906;50.812;7.132;2023-04-25T03:05:16;8.90;69.80
4107;DHT22;21906;50.812;7.132;2023-04-25T03:07:42;8.90;69.90
4107;DHT22;21906;50.812;7.132;2023-04-25T03:10:10;8.90;70.10
4107;DHT22;21906;50.812;7.132;2023-04-25T03:12:35;8.90;70.00
4107;DHT22;21906;50.812;7.132;2023-04-25T03:15:02;8.90;69.90
4107;DHT22;21906;50.812;7.132;2023-04-25T03:17:28;8.80;69.90
4107;DHT22;21906;50.812;7.132;2023-04-25T03:19:54;8.80;70.30
4107;DHT22;21906;50.812;7.132;2023-04-25T03:22:19;8.80;70.20
4107;DHT22;21906;50.812;7.132;2023-04-25T03:24:45;8.80;70.30
4107;DHT22;21906;50.812;7.132;2023-04-25T03:27:11;8.80;70.20
4107;DHT22;21906;50.812;7.132;2023-04-25T03:29:36;8.60;70.40
4107;DHT22;21906;50.812;7.132;2023-04-25T03:32:02;8.60;70.60
4107;DHT22;21906;50.812;7.132;2023-04-25T03:34:27;8.60;70.50
4107;DHT22;21906;50.812;7.132;2023-04-25T03:36:54;8.60;70.50
4107;DHT22;21906;50.812;7.132;2023-04-25T03:39:19;8.60;70.50
4107;DHT22;21906;50.812;7.132;2023-04-25T03:41:45;8.70;70.40
4107;DHT22;21906;50.812;7.132;2023-04-25T03:44:10;8.60;70.30
4107;DHT22;21906;50.812;7.132;2023-04-25T03:46:36;8.60;70.20
4107;DHT22;21906;50.812;7.132;2023-04-25T03:49:01;8.60;70.30
4107;DHT22;21906;50.812;7.132;2023-04-25T03:51:27;8.60;70.50
4107;DHT22;21906;50.812;7.132;2023-04-25T03:53:53;8.60;70.40
4107;DHT22;21906;50.812;7.132;2023-04-25T03:56:18;8.70;70.40
4107;DHT22;21906;50.812;7.132;2023-04-25T03:58:45;8.70;70.30
4107;DHT22;21906;50.812;7.132;2023-04-25T04:01:11;8.60;70.40
4107;DHT22;21906;50.812;7.132;2023-04-25T04:03:36;8.60;70.40
4107;DHT22;21906;50.812;7.132;2023-04-25T04:06:04;8.70;70.20
4107;DHT22;21906;50.812;7.132;2023-04-25T04:08:31;8.80;69.80
4107;DHT22;21906;50.812;7.132;2023-04-25T04:10:57;8.70;69.80
4107;DHT22;21906;50.812;7.132;2023-04-25T04:13:25;8.80;69.60
4107;DHT22;21906;50.812;7.132;2023-04-25T04:15:51;8.90;69.90
4107;DHT22;21906;50.812;7.132;2023-04-25T04:18:16;8.80;70.50
4107;DHT22;21906;50.812;7.132;2023-04-25T04:20:42;8.70;70.00
4107;DHT22;21906;50.812;7.132;2023-04-25T04:23:07;8.80;70.10
4107;DHT22;21906;50.812;7.132;2023-04-25T04:25:33;8.90;69.90
4107;DHT22;21906;50.812;7.132;2023-04-25T04:27:59;8.90;70.20
4107;DHT22;21906;50.812;7.132;2023-04-25T04:30:26;8.90;70.30
4107;DHT22;21906;50.812;7.132;2023-04-25T04:32:55;8.90;70.50
4107;DHT22;21906;50.812;7.132;2023-04-25T04:35:21;8.90;70.30
4107;DHT22;21906;50.812;7.132;2023-04-25T04:37:47;8.90;70.30
4107;DHT22;21906;50.812;7.132;2023-04-25T04:40:13;8.90;70.30
4107;DHT22;21906;50.812;7.132;2023-04-25T04:42:44;8.90;70.60
4107;DHT22;21906;50.812;7.132;2023-04-25T04:45:12;9.00;70.30
4107;DHT22;21906;50.812;7.132;2023-04-25T04:47:38;9.00;70.20
4107;DHT22;21906;50.812;7.132;2023-04-25T04:50:06;9.10;70.30
4107;DHT22;21906;50.812;7.132;2023-04-25T04:52:34;9.10;70.20
4107;DHT22;21906;50.812;7.132;2023-04-25T04:54:59;9.10;69.80
4107;DHT22;21906;50.812;7.132;2023-04-25T04:57:25;9.20;70.00
4107;DHT22;21906;50.812;7.132;2023-04-25T04:59:51;9.10;70.50
4107;DHT22;21906;50.812;7.132;2023-04-25T05:02:16;9.10;70.80
4107;DHT22;21906;50.812;7.132;2023-04-25T05:04:42;9.00;70.70
4107;DHT22;21906;50.812;7.132;2023-04-25T05:07:08;9.20;70.60
4107;DHT22;21906;50.812;7.132;2023-04-25T05:09:33;9.00;71.00
4107;DHT22;21906;50.812;7.132;2023-04-25T05:11:59;9.00;71.40
4107;DHT22;21906;50.812;7.132;2023-04-25T05:14:26;8.90;71.50
4107;DHT22;21906;50.812;7.132;2023-04-25T05:16:51;9.00;71.40
4107;DHT22;21906;50.812;7.132;2023-04-25T05:19:17;8.90;71.30
4107;DHT22;21906;50.812;7.132;2023-04-25T05:21:43;9.00;71.30
4107;DHT22;21906;50.812;7.132;2023-04-25T05:24:09;8.90;71.50
4107;DHT22;21906;50.812;7.132;2023-04-25T05:26:34;8.90;71.60
4107;DHT22;21906;50.812;7.132;2023-04-25T05:29:00;8.70;72.20
4107;DHT22;21906;50.812;7.132;2023-04-25T05:31:26;8.70;72.80
4107;DHT22;21906;50.812;7.132;2023-04-25T05:33:52;8.80;72.50
4107;DHT22;21906;50.812;7.132;2023-04-25T05:36:18;8.90;72.40
4107;DHT22;21906;50.812;7.132;2023-04-25T05:38:45;8.90;72.20
4107;DHT22;21906;50.812;7.132;2023-04-25T05:41:10;8.90;72.30
4107;DHT22;21906;50.812;7.132;2023-04-25T05:43:36;8.90;72.10
4107;DHT22;21906;50.812;7.132;2023-04-25T05:46:01;9.00;72.20
4107;DHT22;21906;50.812;7.132;2023-04-25T05:48:27;9.00;72.30
4107;DHT22;21906;50.812;7.132;2023-04-25T05:50:53;9.20;72.30
4107;DHT22;21906;50.812;7.132;2023-04-25T05:53:19;9.20;71.30
4107;DHT22;21906;50.812;7.132;2023-04-25T05:55:45;9.10;71.40
4107;DHT22;21906;50.812;7.132;2023-04-25T05:58:10;9.10;71.60
4107;DHT22;21906;50.812;7.132;2023-04-25T06:00:36;9.10;72.20
4107;DHT22;21906;50.812;7.132;2023-04-25T06:03:02;9.20;71.50
4107;DHT22;21906;50.812;7.132;2023-04-25T06:05:28;9.30;71.50
4107;DHT22;21906;50.812;7.132;2023-04-25T06:07:53;9.30;71.10
4107;DHT22;21906;50.812;7.132;2023-04-25T06:10:19;9.30;71.10
4107;DHT22;21906;50.812;7.132;2023-04-25T06:12:45;9.40;70.70
4107;DHT22;21906;50.812;7.132;2023-04-25T06:15:10;9.30;71.00
4107;DHT22;21906;50.812;7.132;2023-04-25T06:17:36;9.40;71.10
4107;DHT22;21906;50.812;7.132;2023-04-25T06:20:05;9.50;70.60
4107;DHT22;21906;50.812;7.132;2023-04-25T06:22:31;9.60;70.30
4107;DHT22;21906;50.812;7.132;2023-04-25T06:24:56;9.70;70.20
4107;DHT22;21906;50.812;7.132;2023-04-25T06:27:24;9.60;70.00
4107;DHT22;21906;50.812;7.132;2023-04-25T06:29:50;9.60;68.60
4107;DHT22;21906;50.812;7.132;2023-04-25T06:32:15;9.70;68.40
4107;DHT22;21906;50.812;7.132;2023-04-25T06:34:43;9.70;68.20
4107;DHT22;21906;50.812;7.132;2023-04-25T06:37:09;9.80;68.70
4107;DHT22;21906;50.812;7.132;2023-04-25T06:39:34;9.90;68.40
4107;DHT22;21906;50.812;7.132;2023-04-25T06:42:00;9.90;67.80
4107;DHT22;21906;50.812;7.132;2023-04-25T06:44:26;9.90;67.90
4107;DHT22;21906;50.812;7.132;2023-04-25T06:46:51;9.90;67.20
4107;DHT22;21906;50.812;7.132;2023-04-25T06:49:17;9.70;68.10
4107;DHT22;21906;50.812;7.132;2023-04-25T06:51:43;9.80;67.80
4107;DHT22;21906;50.812;7.132;2023-04-25T06:54:08;9.90;67.30
4107;DHT22;21906;50.812;7.132;2023-04-25T06:56:34;9.90;66.80
4107;DHT22;21906;50.812;7.132;2023-04-25T06:58:59;9.90;66.40
4107;DHT22;21906;50.812;7.132;2023-04-25T07:01:26;10.10;65.80
4107;DHT22;21906;50.812;7.132;2023-04-25T07:03:51;10.00;64.80
4107;DHT22;21906;50.812;7.132;2023-04-25T07:06:17;10.10;65.90
4107;DHT22;21906;50.812;7.132;2023-04-25T07:08:43;10.20;65.50
4107;DHT22;21906;50.812;7.132;2023-04-25T07:11:08;10.50;63.80
4107;DHT22;21906;50.812;7.132;2023-04-25T07:13:34;10.70;63.10
4107;DHT22;21906;50.812;7.132;2023-04-25T07:16:00;10.70;63.00
4107;DHT22;21906;50.812;7.132;2023-04-25T07:18:25;10.60;63.60
4107;DHT22;21906;50.812;7.132;2023-04-25T07:20:51;10.60;62.50
4107;DHT22;21906;50.812;7.132;2023-04-25T07:23:17;10.60;62.70
4107;DHT22;21906;50.812;7.132;2023-04-25T07:25:42;10.50;63.80
4107;DHT22;21906;50.812;7.132;2023-04-25T07:28:08;10.70;63.80
4107;DHT22;21906;50.812;7.132;2023-04-25T07:30:33;10.80;62.90
4107;DHT22;21906;50.812;7.132;2023-04-25T07:33:00;10.80;63.20
4107;DHT22;21906;50.812;7.132;2023-04-25T07:35:26;10.90;62.00
4107;DHT22;21906;50.812;7.132;2023-04-25T07:37:51;10.80;60.80
4107;DHT22;21906;50.812;7.132;2023-04-25T07:40:17;10.90;62.00
4107;DHT22;21906;50.812;7.132;2023-04-25T07:42:42;10.90;61.00
4107;DHT22;21906;50.812;7.132;2023-04-25T07:45:08;10.80;61.60
4107;DHT22;21906;50.812;7.132;2023-04-25T07:47:35;10.80;61.40
4107;DHT22;21906;50.812;7.132;2023-04-25T07:50:01;10.60;62.30
4107;DHT22;21906;50.812;7.132;2023-04-25T07:52:27;10.70;62.10
4107;DHT22;21906;50.812;7.132;2023-04-25T07:54:52;10.70;61.80
4107;DHT22;21906;50.812;7.132;2023-04-25T07:57:19;10.60;59.50
4107;DHT22;21906;50.812;7.132;2023-04-25T07:59:45;10.40;59.00
4107;DHT22;21906;50.812;7.132;2023-04-25T08:02:10;10.40;58.50
4107;DHT22;21906;50.812;7.132;2023-04-25T08:04:36;10.50;58.10
4107;DHT22;21906;50.812;7.132;2023-04-25T08:07:02;10.40;58.10
4107;DHT22;21906;50.812;7.132;2023-04-25T08:09:27;10.40;59.20
4107;DHT22;21906;50.812;7.132;2023-04-25T08:11:54;10.40;57.80
4107;DHT22;21906;50.812;7.132;2023-04-25T08:14:20;10.40;57.40
4107;DHT22;21906;50.812;7.132;2023-04-25T08:16:46;10.40;57.80
4107;DHT22;21906;50.812;7.132;2023-04-25T08:19:11;10.40;58.60
4107;DHT22;21906;50.812;7.132;2023-04-25T08:21:37;10.30;58.80
4107;DHT22;21906;50.812;7.132;2023-04-25T08:24:03;10.40;59.00
4107;DHT22;21906;50.812;7.132;2023-04-25T08:26:29;10.50;59.20
4107;DHT22;21906;50.812;7.132;2023-04-25T08:28:55;10.50;58.90
4107;DHT22;21906;50.812;7.132;2023-04-25T08:31:20;10.60;58.90
4107;DHT22;21906;50.812;7.132;2023-04-25T08:33:46;10.70;58.60
4107;DHT22;21906;50.812;7.132;2023-04-25T08:36:12;10.90;56.10
4107;DHT22;21906;50.812;7.132;2023-04-25T08:38:37;11.00;54.40
4107;DHT22;21906;50.812;7.132;2023-04-25T08:41:04;11.20;53.90
4107;DHT22;21906;50.812;7.132;2023-04-25T08:43:30;11.10;53.30
4107;DHT22;21906;50.812;7.132;2023-04-25T08:46:00;10.90;54.70
4107;DHT22;21906;50.812;7.132;2023-04-25T08:48:32;11.00;54.60
4107;DHT22;21906;50.812;7.132;2023-04-25T08:50:58;11.30;55.20
4107;DHT22;21906;50.812;7.132;2023-04-25T08:53:31;11.40;54.70
4107;DHT22;21906;50.812;7.132;2023-04-25T08:56:00;11.40;53.90
4107;DHT22;21906;50.812;7.132;2023-04-25T08:58:27;11.60;54.60
4107;DHT22;21906;50.812;7.132;2023-04-25T09:00:53;11.80;53.70
4107;DHT22;21906;50.812;7.132;2023-04-25T09:03:19;11.80;51.60
4107;DHT22;21906;50.812;7.132;2023-04-25T09:05:44;11.70;51.80
4107;DHT22;21906;50.812;7.132;2023-04-25T09:08:10;11.50;51.70
4107;DHT22;21906;50.812;7.132;2023-04-25T09:10:37;11.30;52.40
4107;DHT22;21906;50.812;7.132;2023-04-25T09:13:13;11.40;53.20
4107;DHT22;21906;50.812;7.132;2023-04-25T09:15:48;11.50;57.10
4107;DHT22;21906;50.812;7.132;2023-04-25T09:18:28;11.50;55.20
4107;DHT22;21906;50.812;7.132;2023-04-25T09:20:55;11.50;54.20
4107;DHT22;21906;50.812;7.132;2023-04-25T09:23:22;11.50;55.70
4107;DHT22;21906;50.812;7.132;2023-04-25T09:25:50;11.50;55.90
4107;DHT22;21906;50.812;7.132;2023-04-25T09:28:16;11.60;56.00
4107;DHT22;21906;50.812;7.132;2023-04-25T09:30:41;11.50;54.30
4107;DHT22;21906;50.812;7.132;2023-04-25T09:33:08;11.40;54.40
4107;DHT22;21906;50.812;7.132;2023-04-25T09:35:42;11.40;56.50
4107;DHT22;21906;50.812;7.132;2023-04-25T09:38:10;11.40;56.70
4107;DHT22;21906;50.812;7.132;2023-04-25T09:40:42;11.20;55.60
4107;DHT22;21906;50.812;7.132;2023-04-25T09:43:21;11.20;56.00
4107;DHT22;21906;50.812;7.132;2023-04-25T09:45:48;11.20;56.60
4107;DHT22;21906;50.812;7.132;2023-04-25T09:48:18;11.10;55.20
4107;DHT22;21906;50.812;7.132;2023-04-25T09:50:45;11.10;55.50
4107;DHT22;21906;50.812;7.132;2023-04-25T09:53:12;11.10;54.80
4107;DHT22;21906;50.812;7.132;2023-04-25T09:55:38;11.10;55.20
4107;DHT22;21906;50.812;7.132;2023-04-25T09:58:05;11.10;54.90
4107;DHT22;21906;50.812;7.132;2023-04-25T10:00:33;11.10;54.80
4107;DHT22;21906;50.812;7.132;2023-04-25T10:03:01;11.20;54.80
4107;DHT22;21906;50.812;7.132;2023-04-25T10:05:30;11.30;54.80
4107;DHT22;21906;50.812;7.132;2023-04-25T10:07:58;11.40;56.00
4107;DHT22;21906;50.812;7.132;2023-04-25T10:10:26;11.50;54.80
4107;DHT22;21906;50.812;7.132;2023-04-25T10:12:54;11.40;53.00
4107;DHT22;21906;50.812;7.132;2023-04-25T10:15:21;11.20;54.20
4107;DHT22;21906;50.812;7.132;2023-04-25T10:17:48;11.40;56.80
4107;DHT22;21906;50.812;7.132;2023-04-25T10:20:14;11.30;54.10
4107;DHT22;21906;50.812;7.132;2023-04-25T10:22:54;11.40;53.20
4107;DHT22;21906;50.812;7.132;2023-04-25T10:25:22;11.40;52.20
4107;DHT22;21906;50.812;7.132;2023-04-25T10:27:51;11.60;50.70
4107;DHT22;21906;50.812;7.132;2023-04-25T10:30:18;11.80;50.10
4107;DHT22;21906;50.812;7.132;2023-04-25T10:32:44;11.80;51.00
4107;DHT22;21906;50.812;7.132;2023-04-25T10:35:23;11.90;49.80
4107;DHT22;21906;50.812;7.132;2023-04-25T10:38:00;11.70;49.30
4107;DHT22;21906;50.812;7.132;2023-04-25T10:40:28;11.70;50.60
4107;DHT22;21906;50.812;7.132;2023-04-25T10:42:54;11.50;50.70
4107;DHT22;21906;50.812;7.132;2023-04-25T10:45:20;11.40;51.40
4107;DHT22;21906;50.812;7.132;2023-04-25T10:47:46;11.40;51.00
4107;DHT22;21906;50.812;7.132;2023-04-25T10:50:14;11.20;51.50
4107;DHT22;21906;50.812;7.132;2023-04-25T10:52:40;10.90;53.50
4107;DHT22;21906;50.812;7.132;2023-04-25T10:55:06;11.00;52.90
4107;DHT22;21906;50.812;7.132;2023-04-25T10:57:35;11.10;53.10
4107;DHT22;21906;50.812;7.132;2023-04-25T11:00:15;11.00;53.60
4107;DHT22;21906;50.812;7.132;2023-04-25T11:02:51;11.30;53.20
4107;DHT22;21906;50.812;7.132;2023-04-25T11:07:54;11.40;52.80
4107;DHT22;21906;50.812;7.132;2023-04-25T11:10:30;11.30;53.60
4107;DHT22;21906;50.812;7.132;2023-04-25T11:12:57;11.40;52.90
4107;DHT22;21906;50.812;7.132;2023-04-25T11:15:23;11.40;53.40
4107;DHT22;21906;50.812;7.132;2023-04-25T11:17:54;11.40;53.20
4107;DHT22;21906;50.812;7.132;2023-04-25T11:20:21;11.80;55.10
4107;DHT22;21906;50.812;7.132;2023-04-25T11:22:47;12.10;53.10
4107;DHT22;21906;50.812;7.132;2023-04-25T11:25:15;12.40;49.30
4107;DHT22;21906;50.812;7.132;2023-04-25T11:27:58;12.40;46.20
4107;DHT22;21906;50.812;7.132;2023-04-25T11:30:25;12.50;47.90
4107;DHT22;21906;50.812;7.132;2023-04-25T11:32:51;12.40;49.40
4107;DHT22;21906;50.812;7.132;2023-04-25T11:35:18;12.20;50.80
4107;DHT22;21906;50.812;7.132;2023-04-25T11:37:45;12.10;50.50
4107;DHT22;21906;50.812;7.132;2023-04-25T11:40:11;11.90;49.60
4107;DHT22;21906;50.812;7.132;2023-04-25T11:42:44;11.70;49.50
4107;DHT22;21906;50.812;7.132;2023-04-25T11:45:10;11.60;49.20
4107;DHT22;21906;50.812;7.132;2023-04-25T11:47:36;11.50;49.80
4107;DHT22;21906;50.812;7.132;2023-04-25T11:50:04;11.40;49.60
4107;DHT22;21906;50.812;7.132;2023-04-25T11:52:56;11.40;50.30
4107;DHT22;21906;50.812;7.132;2023-04-25T11:55:22;11.40;50.20
4107;DHT22;21906;50.812;7.132;2023-04-25T11:57:49;11.40;50.90
4107;DHT22;21906;50.812;7.132;2023-04-25T12:00:21;11.60;51.70
4107;DHT22;21906;50.812;7.132;2023-04-25T12:02:52;11.70;51.20
4107;DHT22;21906;50.812;7.132;2023-04-25T12:05:18;11.90;50.40
4107;DHT22;21906;50.812;7.132;2023-04-25T12:07:45;11.90;49.80
4107;DHT22;21906;50.812;7.132;2023-04-25T12:10:12;12.00;50.00
4107;DHT22;21906;50.812;7.132;2023-04-25T12:12:41;12.20;48.80
4107;DHT22;21906;50.812;7.132;2023-04-25T12:15:15;12.60;46.50
4107;DHT22;21906;50.812;7.132;2023-04-25T12:17:48;12.70;46.40
4107;DHT22;21906;50.812;7.132;2023-04-25T12:20:18;12.90;46.60
4107;DHT22;21906;50.812;7.132;2023-04-25T12:22:49;12.90;47.80
4107;DHT22;21906;50.812;7.132;2023-04-25T12:25:43;13.30;47.80
4107;DHT22;21906;50.812;7.132;2023-04-25T12:28:20;13.60;47.00
4107;DHT22;21906;50.812;7.132;2023-04-25T12:33:23;14.20;45.00
4107;DHT22;21906;50.812;7.132;2023-04-25T12:35:48;14.20;45.50
4107;DHT22;21906;50.812;7.132;2023-04-25T12:38:27;14.10;42.30
4107;DHT22;21906;50.812;7.132;2023-04-25T12:40:55;14.00;43.80
4107;DHT22;21906;50.812;7.132;2023-04-25T12:43:21;14.30;45.80
4107;DHT22;21906;50.812;7.132;2023-04-25T12:45:51;14.30;42.40
4107;DHT22;21906;50.812;7.132;2023-04-25T12:48:18;14.50;43.60
4107;DHT22;21906;50.812;7.132;2023-04-25T12:50:44;14.60;43.70
4107;DHT22;21906;50.812;7.132;2023-04-25T12:53:10;14.90;42.80
4107;DHT22;21906;50.812;7.132;2023-04-25T12:55:36;15.20;38.90
4107;DHT22;21906;50.812;7.132;2023-04-25T12:58:02;15.20;43.00
4107;DHT22;21906;50.812;7.132;2023-04-25T13:00:29;15.20;38.30
4107;DHT22;21906;50.812;7.132;2023-04-25T13:02:54;15.40;36.30
4107;DHT22;21906;50.812;7.132;2023-04-25T13:05:20;15.40;37.10
4107;DHT22;21906;50.812;7.132;2023-04-25T13:07:46;15.50;37.20
4107;DHT22;21906;50.812;7.132;2023-04-25T13:10:12;15.60;35.20
4107;DHT22;21906;50.812;7.132;2023-04-25T13:12:37;15.60;35.40
4107;DHT22;21906;50.812;7.132;2023-04-25T13:15:03;15.20;35.30
4107;DHT22;21906;50.812;7.132;2023-04-25T13:17:29;14.60;35.90
4107;DHT22;21906;50.812;7.132;2023-04-25T13:19:55;14.30;37.10
4107;DHT22;21906;50.812;7.132;2023-04-25T13:22:20;14.10;38.30
4107;DHT22;21906;50.812;7.132;2023-04-25T13:24:46;13.90;39.10
4107;DHT22;21906;50.812;7.132;2023-04-25T13:27:12;13.60;38.80
4107;DHT22;21906;50.812;7.132;2023-04-25T13:29:38;13.50;39.00
4107;DHT22;21906;50.812;7.132;2023-04-25T13:32:06;13.20;38.60
4107;DHT22;21906;50.812;7.132;2023-04-25T13:34:32;13.00;40.00
4107;DHT22;21906;50.812;7.132;2023-04-25T13:36:58;12.90;40.50
4107;DHT22;21906;50.812;7.132;2023-04-25T13:39:24;12.90;42.00
4107;DHT22;21906;50.812;7.132;2023-04-25T13:41:50;12.70;42.10
4107;DHT22;21906;50.812;7.132;2023-04-25T13:44:15;12.40;42.80
4107;DHT22;21906;50.812;7.132;2023-04-25T13:46:41;12.40;43.30
4107;DHT22;21906;50.812;7.132;2023-04-25T13:49:07;12.30;43.60
4107;DHT22;21906;50.812;7.132;2023-04-25T13:51:33;12.40;44.00
4107;DHT22;21906;50.812;7.132;2023-04-25T13:53:58;12.40;42.90
4107;DHT22;21906;50.812;7.132;2023-04-25T13:56:24;12.30;42.90
4107;DHT22;21906;50.812;7.132;2023-04-25T13:58:50;12.20;43.30
4107;DHT22;21906;50.812;7.132;2023-04-25T14:01:17;12.20;43.70
4107;DHT22;21906;50.812;7.132;2023-04-25T14:03:43;12.30;43.70
4107;DHT22;21906;50.812;7.132;2023-04-25T14:06:08;12.40;42.90
4107;DHT22;21906;50.812;7.132;2023-04-25T14:08:34;12.50;43.20
4107;DHT22;21906;50.812;7.132;2023-04-25T14:11:00;12.80;42.80
4107;DHT22;21906;50.812;7.132;2023-04-25T14:13:26;13.20;43.60
4107;DHT22;21906;50.812;7.132;2023-04-25T14:15:52;13.80;41.00
4107;DHT22;21906;50.812;7.132;2023-04-25T14:18:18;14.30;40.80
4107;DHT22;21906;50.812;7.132;2023-04-25T14:20:44;14.70;38.70
4107;DHT22;21906;50.812;7.132;2023-04-25T14:23:10;15.00;37.20
4107;DHT22;21906;50.812;7.132;2023-04-25T14:25:36;15.60;38.40
4107;DHT22;21906;50.812;7.132;2023-04-25T14:28:02;16.20;34.70
4107;DHT22;21906;50.812;7.132;2023-04-25T14:30:27;16.60;35.30
4107;DHT22;21906;50.812;7.132;2023-04-25T14:32:53;16.90;34.70
4107;DHT22;21906;50.812;7.132;2023-04-25T14:35:19;17.20;33.60
4107;DHT22;21906;50.812;7.132;2023-04-25T14:37:45;17.60;33.00
4107;DHT22;21906;50.812;7.132;2023-04-25T14:40:11;17.90;33.50
4107;DHT22;21906;50.812;7.132;2023-04-25T14:42:39;18.20;33.00
4107;DHT22;21906;50.812;7.132;2023-04-25T14:45:06;18.60;30.60
4107;DHT22;21906;50.812;7.132;2023-04-25T14:47:32;18.80;29.80
4107;DHT22;21906;50.812;7.132;2023-04-25T14:49:58;18.80;30.10
4107;DHT22;21906;50.812;7.132;2023-04-25T14:52:24;18.80;29.00
4107;DHT22;21906;50.812;7.132;2023-04-25T14:54:51;18.50;29.60
4107;DHT22;21906;50.812;7.132;2023-04-25T14:57:16;17.90;30.70
4107;DHT22;21906;50.812;7.132;2023-04-25T14:59:42;17.40;32.00
4107;DHT22;21906;50.812;7.132;2023-04-25T15:02:07;17.00;31.90
4107;DHT22;21906;50.812;7.132;2023-04-25T15:04:33;16.70;33.10
4107;DHT22;21906;50.812;7.132;2023-04-25T15:06:59;16.20;34.00
4107;DHT22;21906;50.812;7.132;2023-04-25T15:09:24;15.70;34.70
4107;DHT22;21906;50.812;7.132;2023-04-25T15:11:50;15.40;36.60
4107;DHT22;21906;50.812;7.132;2023-04-25T15:14:17;15.00;35.70
4107;DHT22;21906;50.812;7.132;2023-04-25T15:16:42;14.70;35.90
4107;DHT22;21906;50.812;7.132;2023-04-25T15:19:08;14.40;36.60
4107;DHT22;21906;50.812;7.132;2023-04-25T15:21:34;14.70;35.60
4107;DHT22;21906;50.812;7.132;2023-04-25T15:23:59;15.80;36.60
4107;DHT22;21906;50.812;7.132;2023-04-25T15:26:26;17.30;34.50
4107;DHT22;21906;50.812;7.132;2023-04-25T15:28:52;18.30;33.20
4107;DHT22;21906;50.812;7.132;2023-04-25T15:31:18;18.90;30.00
4107;DHT22;21906;50.812;7.132;2023-04-25T15:33:43;18.70;28.20
4107;DHT22;21906;50.812;7.132;2023-04-25T15:36:09;18.20;29.40
4107;DHT22;21906;50.812;7.132;2023-04-25T15:38:35;18.30;30.70
4107;DHT22;21906;50.812;7.132;2023-04-25T15:41:01;18.90;29.50
4107;DHT22;21906;50.812;7.132;2023-04-25T15:43:27;18.70;29.40
4107;DHT22;21906;50.812;7.132;2023-04-25T15:45:52;18.90;30.70
4107;DHT22;21906;50.812;7.132;2023-04-25T15:48:18;19.90;29.90
4107;DHT22;21906;50.812;7.132;2023-04-25T15:50:44;20.80;28.50
4107;DHT22;21906;50.812;7.132;2023-04-25T15:53:10;21.20;27.50